createdAt,value
2023-06-27T00:03:30.634Z,101433.34
2023-06-27T00:08:51.225Z,101429.72
2023-06-27T00:14:11.571Z,101447.09
2023-06-27T00:19:32.121Z,101438.63
2023-06-27T00:24:54.441Z,101429.06
2023-06-27T00:30:15.584Z,101425.38
2023-06-27T00:35:38.847Z,101436.56
2023-06-27T00:41:01.152Z,101435.50
2023-06-27T00:46:41.378Z,101432.59
2023-06-27T00:52:02.565Z,101444.22
2023-06-27T00:57:23.353Z,101435.63
2023-06-27T01:02:46.801Z,101438.38
2023-06-27T01:22:42.448Z,101442.38
2023-06-27T01:28:03.546Z,101432.91
2023-06-27T01:33:33.607Z,101424.25
2023-06-27T01:39:24.272Z,101446.56
2023-06-27T01:44:49.977Z,101443.53
2023-06-27T01:50:12.316Z,101434.59
2023-06-27T01:55:35.416Z,101424.00
2023-06-27T02:00:55.861Z,101427.41
2023-06-27T02:06:16.654Z,101416.81
2023-06-27T02:11:37.591Z,101427.81
2023-06-27T02:16:58.375Z,101420.78
2023-06-27T02:22:18.973Z,101414.25
2023-06-27T02:27:39.749Z,101419.25
2023-06-27T02:33:03.231Z,101416.50
2023-06-27T02:38:26.901Z,101418.44
2023-06-27T02:43:47.381Z,101417.50
2023-06-27T02:49:08.146Z,101406.50
2023-06-27T02:54:29.104Z,101409.81
2023-06-27T02:59:51.490Z,101408.94
2023-06-27T03:05:12.735Z,101418.72
2023-06-27T03:10:33.334Z,101425.56
2023-06-27T03:15:55.003Z,101419.84
2023-06-27T03:21:17.120Z,101416.50
2023-06-27T03:33:47.456Z,101416.13
2023-06-27T03:39:08.749Z,101403.41
2023-06-27T03:44:30.357Z,101405.81
2023-06-27T03:49:51.205Z,101404.19
2023-06-27T03:55:12.677Z,101419.06
2023-06-27T04:00:35.261Z,101417.59
2023-06-27T04:05:56.766Z,101407.91
2023-06-27T04:11:18.396Z,101412.66
2023-06-27T04:16:39.455Z,101410.38
2023-06-27T04:22:00.501Z,101408.28
2023-06-27T04:27:23.193Z,101393.53
2023-06-27T04:32:49.965Z,101397.41
2023-06-27T04:38:15.277Z,101398.66
2023-06-27T04:43:37.439Z,101393.53
2023-06-27T04:48:59.481Z,101392.09
2023-06-27T04:54:20.216Z,101394.47
2023-06-27T04:59:40.882Z,101400.59
2023-06-27T05:05:01.732Z,101395.88
2023-06-27T05:10:22.615Z,101395.09
2023-06-27T05:15:44.063Z,101403.66
2023-06-27T05:21:05.251Z,101411.09
2023-06-27T05:26:26.172Z,101391.19
2023-06-27T05:31:46.918Z,101399.13
2023-06-27T05:37:07.584Z,101398.25
2023-06-27T05:42:27.973Z,101399.41
2023-06-27T05:47:48.649Z,101400.41
2023-06-27T05:53:09.133Z,101408.94
2023-06-27T05:58:30.314Z,101382.66
2023-06-27T06:03:51.486Z,101403.41
2023-06-27T06:09:12.625Z,101401.38
2023-06-27T06:14:33.461Z,101405.69
2023-06-27T06:19:54.342Z,101388.22
2023-06-27T06:25:15.118Z,101394.44
2023-06-27T06:30:35.968Z,101406.28
2023-06-27T06:35:57.629Z,101408.25
2023-06-27T06:41:21.895Z,101412.13
2023-06-27T06:46:42.928Z,101411.09
2023-06-27T06:52:03.794Z,101422.72
2023-06-27T06:57:24.584Z,101418.06
2023-06-27T07:02:48.595Z,101423.41
2023-06-27T07:08:10.204Z,101415.09
2023-06-27T07:13:30.879Z,101411.31
2023-06-27T07:18:52.516Z,101417.28
2023-06-27T07:24:13.409Z,101422.06
2023-06-27T07:29:34.114Z,101399.69
2023-06-27T07:34:55.354Z,101409.00
2023-06-27T07:40:16.287Z,101424.41
2023-06-27T07:45:39.327Z,101419.00
2023-06-27T07:51:00.103Z,101407.75
2023-06-27T07:56:20.785Z,101419.88
2023-06-27T08:01:41.770Z,101424.56
2023-06-27T08:07:02.262Z,101440.69
2023-06-27T08:12:23.022Z,101420.75
2023-06-27T08:17:43.883Z,101431.78
2023-06-27T08:23:04.440Z,101439.25
2023-06-27T08:28:25.204Z,101439.69
2023-06-27T08:33:46.166Z,101446.50
2023-06-27T08:39:07.022Z,101442.91
2023-06-27T08:44:27.983Z,101453.53
2023-06-27T08:49:52.111Z,101444.94
2023-06-27T08:55:21.758Z,101446.22
2023-06-27T09:00:46.251Z,101437.28
2023-06-27T09:06:08.739Z,101433.00
2023-06-27T09:11:30.160Z,101442.25
2023-06-27T09:16:51.057Z,101458.19
2023-06-27T09:22:12.130Z,101454.53
2023-06-27T09:27:32.948Z,101436.34
2023-06-27T09:32:58.489Z,101449.94
2023-06-27T09:43:52.556Z,101457.75
2023-06-27T09:49:14.253Z,101466.00
2023-06-27T09:54:42.473Z,101460.19
2023-06-27T10:00:05.541Z,101473.97
2023-06-27T10:05:29.879Z,101463.16
2023-06-27T10:10:59.022Z,101472.97
2023-06-27T10:16:20.873Z,101469.47
2023-06-27T10:21:43.018Z,101477.66
2023-06-27T10:27:05.519Z,101472.81
2023-06-27T10:32:40.746Z,101484.88
2023-06-27T10:38:10.182Z,101475.22
2023-06-27T10:43:46.647Z,101489.44
2023-06-27T10:49:08.998Z,101484.16
2023-06-27T10:54:29.942Z,101488.72
2023-06-27T10:59:54.427Z,101492.50
2023-06-27T11:05:19.167Z,101491.03
2023-06-27T11:11:01.682Z,101485.94
2023-06-27T11:16:25.781Z,101480.22
2023-06-27T11:21:47.185Z,101486.56
2023-06-27T11:27:08.556Z,101481.69
2023-06-27T11:32:30.066Z,101475.09
2023-06-27T11:37:55.964Z,101467.19
2023-06-27T11:43:17.295Z,101479.81
2023-06-27T11:48:43.665Z,101461.63
2023-06-27T11:54:07.632Z,101479.56
2023-06-27T11:59:32.197Z,101481.56
2023-06-27T12:04:59.442Z,101477.53
2023-06-27T12:10:20.513Z,101479.81
2023-06-27T12:15:48.397Z,101470.47
2023-06-27T12:21:09.444Z,101469.44
2023-06-27T12:26:30.478Z,101477.88
2023-06-27T12:31:51.511Z,101474.75
2023-06-27T12:37:12.538Z,101480.34
2023-06-27T12:42:33.256Z,101482.16
2023-06-27T12:47:53.717Z,101462.84
2023-06-27T12:53:14.634Z,101485.06
2023-06-27T12:58:36.384Z,101471.00
2023-06-27T13:03:57.231Z,101477.81
2023-06-27T13:09:18.393Z,101464.59
2023-06-27T13:14:39.180Z,101471.94
2023-06-27T13:20:00.015Z,101451.44
2023-06-27T13:25:21.791Z,101465.59
2023-06-27T13:30:43.149Z,101476.69
2023-06-27T13:36:04.267Z,101464.72
2023-06-27T13:41:24.760Z,101475.19
2023-06-27T13:46:45.127Z,101475.47
2023-06-27T13:52:06.089Z,101470.06
2023-06-27T13:57:26.706Z,101472.78
2023-06-27T14:02:47.692Z,101477.16
2023-06-27T14:08:26.937Z,101465.78
2023-06-27T14:13:51.845Z,101472.63
2023-06-27T14:19:12.572Z,101484.25
2023-06-27T14:24:33.063Z,101479.50
2023-06-27T14:29:53.733Z,101479.13
2023-06-27T14:35:14.736Z,101474.97
2023-06-27T14:40:35.163Z,101481.69
2023-06-27T14:45:55.992Z,101469.44
2023-06-27T14:51:16.623Z,101497.94
2023-06-27T14:56:37.419Z,101453.50
2023-06-27T15:01:57.644Z,101470.75
2023-06-27T15:07:18.519Z,101464.47
2023-06-27T15:12:39.573Z,101460.59
2023-06-27T15:18:00.306Z,101474.28
2023-06-27T15:23:33.243Z,101475.91
2023-06-27T15:29:00.687Z,101475.63
2023-06-27T15:34:21.419Z,101470.31
2023-06-27T15:39:42.660Z,101459.63
2023-06-27T15:45:04.460Z,101460.69
2023-06-27T15:50:25.805Z,101475.59
2023-06-27T15:55:46.736Z,101463.63
2023-06-27T16:01:07.688Z,101467.38
2023-06-27T16:06:36.324Z,101470.78
2023-06-27T16:11:57.091Z,101460.13
2023-06-27T16:17:18.022Z,101459.56
2023-06-27T16:22:39.106Z,101461.75
2023-06-27T16:27:59.623Z,101473.38
2023-06-27T16:33:20.887Z,101459.28
2023-06-27T16:38:41.762Z,101470.69
2023-06-27T16:44:02.332Z,101475.75
2023-06-27T16:49:23.140Z,101474.47
2023-06-27T16:54:43.955Z,101466.16
2023-06-27T17:00:14.312Z,101449.56
2023-06-27T17:05:35.376Z,101465.38
2023-06-27T17:10:56.162Z,101466.47
2023-06-27T17:16:17.193Z,101469.19
2023-06-27T17:21:38.662Z,101456.09
2023-06-27T17:26:59.501Z,101464.03
2023-06-27T17:32:21.400Z,101465.19
2023-06-27T17:37:42.385Z,101473.66
2023-06-27T17:43:02.927Z,101461.16
2023-06-27T17:48:24.056Z,101453.38
2023-06-27T17:53:44.668Z,101469.75
2023-06-27T17:59:05.339Z,101466.22
2023-06-27T18:04:25.922Z,101471.13
2023-06-27T18:09:46.782Z,101465.88
2023-06-27T18:15:07.908Z,101465.63
2023-06-27T18:20:28.677Z,101482.66
2023-06-27T18:25:49.487Z,101487.53
2023-06-27T18:31:11.499Z,101469.63
2023-06-27T18:36:32.082Z,101464.91
2023-06-27T18:41:52.795Z,101482.25
2023-06-27T18:47:13.516Z,101472.25
2023-06-27T18:52:34.640Z,101472.00
2023-06-27T18:57:56.240Z,101466.25
2023-06-27T19:03:20.441Z,101469.78
2023-06-27T19:08:41.897Z,101472.66
2023-06-27T19:14:07.253Z,101492.53
2023-06-27T19:19:33.783Z,101482.47
2023-06-27T19:24:55.796Z,101479.19
2023-06-27T19:30:16.623Z,101476.13
2023-06-27T19:35:36.964Z,101473.59
2023-06-27T19:40:58.316Z,101481.81
2023-06-27T19:46:19.069Z,101483.47
2023-06-27T19:51:41.082Z,101491.88
2023-06-27T19:57:06.289Z,101496.94
2023-06-27T20:02:26.684Z,101487.56
2023-06-27T20:07:48.426Z,101495.63
2023-06-27T20:13:10.940Z,101505.50
2023-06-27T20:18:31.542Z,101495.03
2023-06-27T20:23:52.073Z,101505.97
2023-06-27T20:29:12.571Z,101497.00
2023-06-27T20:34:36.552Z,101493.53
2023-06-27T20:39:58.670Z,101489.66
2023-06-27T20:45:19.302Z,101495.53
2023-06-27T20:50:39.992Z,101495.94
2023-06-27T20:56:00.791Z,101492.16
2023-06-27T21:01:21.843Z,101488.44
2023-06-27T21:06:42.538Z,101488.06
2023-06-27T21:12:03.440Z,101490.53
2023-06-27T21:17:26.148Z,101487.50
2023-06-27T21:22:46.993Z,101498.91
2023-06-27T21:28:07.753Z,101484.69
2023-06-27T21:33:28.739Z,101486.94
2023-06-27T21:38:49.202Z,101485.22
2023-06-27T21:44:09.956Z,101475.28
2023-06-27T21:49:30.757Z,101488.56
2023-06-27T21:54:51.428Z,101482.00
2023-06-27T22:00:15.216Z,101480.13
2023-06-27T22:05:35.676Z,101484.28
2023-06-27T22:10:56.601Z,101492.28
2023-06-27T22:16:19.713Z,101485.91
2023-06-27T22:21:40.402Z,101482.69
2023-06-27T22:27:01.002Z,101482.69
2023-06-27T22:32:21.559Z,101487.34
2023-06-27T22:37:42.083Z,101479.28
2023-06-27T22:43:02.672Z,101483.09
2023-06-27T22:48:24.546Z,101491.34
2023-06-27T22:53:45.498Z,101482.44
2023-06-27T22:59:06.090Z,101486.72
2023-06-27T23:04:26.989Z,101480.75
2023-06-27T23:09:48.049Z,101489.81
2023-06-27T23:15:08.611Z,101482.63
2023-06-27T23:20:38.929Z,101479.88
2023-06-27T23:26:00.298Z,101491.75
2023-06-27T23:31:21.491Z,101505.09
2023-06-27T23:36:43.859Z,101498.34
2023-06-27T23:42:04.937Z,101498.66
2023-06-27T23:47:26.371Z,101499.94
2023-06-27T23:52:46.774Z,101508.69
2023-06-27T23:58:07.386Z,101498.06
